Time;durP1;ratioP1;P1;durP2;ratioP2;P2;SDS_P1;SDS_P2;PMS_P1;PMS_P2;Temp;Humidity;BMP_temperature;BMP_pressure;BME280_temperature;BME280_humidity;BME280_pressure;Samples;Min_cycle;Max_cycle;Signal;HPM_P1;HPM_P2
2021/10/10 00:00:07;;;;;;;16.58;11.20;;;6.00;99.90;;;;;;6057618;23;20467;-88
2021/10/10 00:02:37;;;;;;;18.92;11.45;;;6.00;99.90;;;;;;6081942;23;20030;-88
2021/10/10 00:05:04;;;;;;;18.98;11.85;;;5.90;99.90;;;;;;6057722;23;20043;-87
2021/10/10 00:07:30;;;;;;;17.10;11.15;;;5.90;99.90;;;;;;6081709;23;20014;-87
2021/10/10 00:09:55;;;;;;;24.17;13.38;;;5.90;99.90;;;;;;6081497;23;20051;-87
2021/10/10 00:12:21;;;;;;;17.35;11.60;;;5.90;99.90;;;;;;6057887;23;20011;-88
2021/10/10 00:14:47;;;;;;;19.63;12.68;;;5.90;99.90;;;;;;6057365;23;20011;-88
2021/10/10 00:17:12;;;;;;;20.58;12.90;;;5.90;99.90;;;;;;6057895;23;20010;-88
2021/10/10 00:19:38;;;;;;;20.38;12.63;;;5.90;99.90;;;;;;6058044;23;20105;-88
2021/10/10 00:22:04;;;;;;;19.08;11.68;;;5.80;99.90;;;;;;6057449;23;20359;-87
2021/10/10 00:24:29;;;;;;;18.52;12.18;;;5.80;99.90;;;;;;6081809;23;20015;-87
2021/10/10 00:26:55;;;;;;;18.75;12.25;;;5.90;99.90;;;;;;6081668;23;20006;-88
2021/10/10 00:29:20;;;;;;;22.70;13.82;;;5.90;99.90;;;;;;6057712;23;20022;-88
2021/10/10 00:31:46;;;;;;;19.83;12.27;;;5.90;99.90;;;;;;6057650;23;20046;-88
2021/10/10 00:34:12;;;;;;;18.50;12.00;;;5.70;99.90;;;;;;6081599;23;20443;-88
2021/10/10 00:36:37;;;;;;;17.27;11.48;;;5.70;99.90;;;;;;6057437;23;20007;-87
2021/10/10 00:39:03;;;;;;;18.88;11.63;;;5.60;99.90;;;;;;6057310;23;20019;-88
2021/10/10 00:41:29;;;;;;;16.25;11.10;;;5.70;99.90;;;;;;6057789;23;20003;-88
2021/10/10 00:43:54;;;;;;;19.92;11.45;;;5.70;99.90;;;;;;6058142;23;20059;-88
2021/10/10 00:46:20;;;;;;;18.95;11.77;;;5.60;99.90;;;;;;6056980;23;20034;-88
2021/10/10 00:48:45;;;;;;;16.85;11.40;;;5.60;99.90;;;;;;6057220;23;20011;-89
2021/10/10 00:51:11;;;;;;;18.67;11.77;;;5.60;99.90;;;;;;6057036;23;20042;-88
2021/10/10 00:53:39;;;;;;;18.52;11.20;;;5.60;99.90;;;;;;6057184;23;20007;-88
2021/10/10 00:56:05;;;;;;;17.92;11.75;;;5.60;99.90;;;;;;6081642;23;20081;-88
2021/10/10 00:58:32;;;;;;;16.60;11.25;;;5.50;99.90;;;;;;6081211;23;20034;-88
2021/10/10 01:00:58;;;;;;;18.00;10.70;;;5.50;99.90;;;;;;6081087;23;20017;-88
2021/10/10 01:03:24;;;;;;;19.65;11.95;;;5.40;99.90;;;;;;6057240;23;20062;-88
2021/10/10 01:05:51;;;;;;;19.63;12.45;;;5.50;99.90;;;;;;6057286;23;20058;-88
2021/10/10 01:08:18;;;;;;;18.58;12.25;;;5.40;99.90;;;;;;6057335;23;20074;-88
2021/10/10 01:10:50;;;;;;;18.67;11.75;;;5.40;99.90;;;;;;6081183;23;20011;-88
2021/10/10 01:13:16;;;;;;;19.20;12.10;;;5.30;99.90;;;;;;6057591;23;20011;-87
2021/10/10 01:15:48;;;;;;;19.25;11.63;;;5.30;99.90;;;;;;6080871;23;20033;-88
2021/10/10 01:18:22;;;;;;;19.98;11.88;;;5.30;99.90;;;;;;6080940;23;20014;-88
2021/10/10 01:20:49;;;;;;;16.10;10.93;;;5.30;99.90;;;;;;6057015;23;20023;-88
2021/10/10 01:23:16;;;;;;;18.50;11.88;;;5.30;99.90;;;;;;6080926;23;20004;-88
2021/10/10 01:25:41;;;;;;;16.73;10.80;;;5.30;99.90;;;;;;6081041;23;20010;-88
2021/10/10 01:28:07;;;;;;;19.75;11.55;;;5.20;99.90;;;;;;6081312;23;20007;-88
2021/10/10 01:30:33;;;;;;;16.52;11.30;;;5.20;99.90;;;;;;6056990;23;20007;-89
2021/10/10 01:33:00;;;;;;;20.27;11.77;;;5.30;99.90;;;;;;6057080;23;20497;-87
2021/10/10 01:35:26;;;;;;;16.02;10.10;;;5.30;99.90;;;;;;6057078;23;20062;-88
2021/10/10 01:37:51;;;;;;;18.50;12.32;;;5.20;99.90;;;;;;6051966;23;20011;-88
2021/10/10 01:40:17;;;;;;;16.10;10.50;;;5.20;99.90;;;;;;6075426;23;20015;-88
2021/10/10 01:42:42;;;;;;;17.58;10.57;;;5.10;99.90;;;;;;6057087;23;20037;-88
2021/10/10 01:45:17;;;;;;;17.65;11.25;;;5.10;99.90;;;;;;6057073;23;20018;-87
2021/10/10 01:47:43;;;;;;;19.13;11.13;;;5.10;99.90;;;;;;6082277;23;20026;-87
2021/10/10 01:50:09;;;;;;;17.48;11.20;;;5.10;99.90;;;;;;6056795;23;20067;-88
2021/10/10 01:52:36;;;;;;;16.95;11.02;;;5.10;99.90;;;;;;6080940;23;20011;-88
2021/10/10 01:55:02;;;;;;;18.10;10.75;;;5.00;99.90;;;;;;6082735;23;20002;-88
2021/10/10 01:57:28;;;;;;;17.73;11.15;;;4.90;99.90;;;;;;6059102;23;20029;-88
2021/10/10 01:59:54;;;;;;;17.75;11.23;;;4.90;99.90;;;;;;6058847;23;20022;-87
2021/10/10 02:02:20;;;;;;;19.23;11.45;;;4.90;99.90;;;;;;6082764;23;20027;-88
2021/10/10 02:04:46;;;;;;;15.93;10.02;;;4.90;99.90;;;;;;6083365;23;20040;-88
2021/10/10 02:07:14;;;;;;;17.42;10.93;;;5.00;99.90;;;;;;6059159;23;20333;-88
2021/10/10 02:09:42;;;;;;;16.35;10.13;;;4.90;99.90;;;;;;6082549;23;20093;-87
2021/10/10 02:12:08;;;;;;;16.08;10.25;;;4.80;99.90;;;;;;6083114;23;20007;-88
2021/10/10 02:14:36;;;;;;;14.60;9.10;;;4.90;99.90;;;;;;6058455;23;20038;-88
2021/10/10 02:17:02;;;;;;;16.90;9.48;;;4.90;99.90;;;;;;6058591;23;20007;-87
2021/10/10 02:19:28;;;;;;;12.70;9.35;;;4.80;99.90;;;;;;6058740;23;20022;-88
2021/10/10 02:21:54;;;;;;;11.73;8.27;;;4.90;99.90;;;;;;6058800;23;20003;-88
2021/10/10 02:24:20;;;;;;;13.73;8.63;;;4.80;99.90;;;;;;6058475;23;20094;-87
2021/10/10 02:26:45;;;;;;;14.00;9.70;;;4.70;99.90;;;;;;6058934;23;20298;-89
2021/10/10 02:29:11;;;;;;;13.98;8.45;;;4.80;99.90;;;;;;6058938;23;20011;-88
2021/10/10 02:31:42;;;;;;;15.13;9.85;;;4.80;99.90;;;;;;6059098;23;20010;-88
2021/10/10 02:34:11;;;;;;;12.35;8.77;;;4.70;99.90;;;;;;6058919;23;20007;-88
2021/10/10 02:36:39;;;;;;;14.10;8.82;;;4.70;99.90;;;;;;6058839;23;20073;-88
2021/10/10 02:39:05;;;;;;;13.15;9.27;;;4.70;99.90;;;;;;6082068;23;20416;-87
2021/10/10 02:41:30;;;;;;;14.23;8.27;;;4.70;99.90;;;;;;6058633;23;20009;-88
2021/10/10 02:43:56;;;;;;;11.23;8.25;;;4.70;99.90;;;;;;6058599;23;20011;-88
2021/10/10 02:46:22;;;;;;;13.50;9.00;;;4.70;99.90;;;;;;6058122;23;20019;-88
2021/10/10 02:48:48;;;;;;;12.07;8.07;;;4.70;99.90;;;;;;6058372;23;20034;-88
2021/10/10 02:51:14;;;;;;;11.85;7.63;;;4.60;99.90;;;;;;6058623;23;20010;-88
2021/10/10 02:53:39;;;;;;;12.73;8.32;;;4.50;99.90;;;;;;6058471;23;20018;-87
2021/10/10 02:56:05;;;;;;;12.63;7.10;;;4.50;99.90;;;;;;6058630;23;20025;-87
2021/10/10 02:58:32;;;;;;;10.88;7.05;;;4.50;99.90;;;;;;6082578;23;20086;-86
2021/10/10 03:00:58;;;;;;;12.02;7.90;;;4.40;99.90;;;;;;6082654;23;20015;-88
2021/10/10 03:03:23;;;;;;;9.38;7.30;;;4.50;99.90;;;;;;6059439;23;20010;-88
2021/10/10 03:05:49;;;;;;;10.88;7.70;;;4.40;99.90;;;;;;6058696;23;20019;-88
2021/10/10 03:08:15;;;;;;;10.23;7.35;;;4.40;99.90;;;;;;6058506;23;20066;-88
2021/10/10 03:10:41;;;;;;;8.23;6.47;;;4.50;99.90;;;;;;6058457;23;20013;-88
2021/10/10 03:13:07;;;;;;;11.15;7.32;;;4.50;99.90;;;;;;6058232;23;20010;-88
2021/10/10 03:15:34;;;;;;;8.32;6.65;;;4.50;99.90;;;;;;6058456;23;20013;-88
2021/10/10 03:17:59;;;;;;;8.80;7.70;;;4.40;99.90;;;;;;6082458;23;20042;-88
2021/10/10 03:20:25;;;;;;;9.50;6.40;;;4.40;99.90;;;;;;6058474;23;20050;-88
2021/10/10 03:22:51;;;;;;;10.00;7.50;;;4.40;99.90;;;;;;6058162;23;20432;-88
2021/10/10 03:25:16;;;;;;;8.27;7.03;;;4.30;99.90;;;;;;6082297;23;20018;-88
2021/10/10 03:27:42;;;;;;;8.70;7.60;;;4.30;99.90;;;;;;6058261;23;20018;-88
2021/10/10 03:30:08;;;;;;;8.23;6.78;;;4.20;99.90;;;;;;6057849;23;20058;-88
2021/10/10 03:32:33;;;;;;;8.38;7.28;;;4.20;99.90;;;;;;6057762;23;20007;-88
2021/10/10 03:34:59;;;;;;;9.40;7.43;;;4.30;99.90;;;;;;6057963;23;20018;-89
2021/10/10 03:37:26;;;;;;;9.52;7.53;;;4.30;99.90;;;;;;6058135;23;20006;-88
2021/10/10 03:39:51;;;;;;;10.73;7.65;;;4.30;99.90;;;;;;6082046;23;20014;-89
2021/10/10 03:42:17;;;;;;;9.32;7.50;;;4.20;99.90;;;;;;6082313;23;20440;-89
2021/10/10 03:44:43;;;;;;;10.18;7.05;;;4.20;99.90;;;;;;6058097;23;20014;-88
2021/10/10 03:47:09;;;;;;;9.82;7.28;;;4.10;99.90;;;;;;6057797;23;20015;-89
2021/10/10 03:49:34;;;;;;;9.20;7.38;;;4.10;99.90;;;;;;6058183;23;20046;-88
2021/10/10 03:52:01;;;;;;;9.70;7.30;;;4.10;99.90;;;;;;6082190;23;20003;-88
2021/10/10 03:56:54;;;;;;;7.60;6.63;;;4.10;99.90;;;;;;6057743;23;20007;-88
2021/10/10 03:59:23;;;;;;;7.75;6.65;;;4.00;99.90;;;;;;6081267;23;20018;-89
2021/10/10 04:01:49;;;;;;;7.72;5.85;;;3.90;99.90;;;;;;6057644;23;20006;-89
2021/10/10 04:04:16;;;;;;;7.28;6.38;;;4.00;99.90;;;;;;6057933;23;20030;-89
2021/10/10 04:06:42;;;;;;;7.13;5.97;;;4.00;99.90;;;;;;6057848;23;20011;-89
2021/10/10 04:09:08;;;;;;;6.40;5.55;;;4.00;99.90;;;;;;6058183;23;20066;-88
2021/10/10 04:11:33;;;;;;;7.07;6.38;;;4.10;99.90;;;;;;6057288;23;20034;-89
2021/10/10 04:13:59;;;;;;;7.38;6.47;;;4.00;99.90;;;;;;6057606;23;20011;-89
2021/10/10 04:16:25;;;;;;;7.20;6.50;;;4.00;99.90;;;;;;6057428;23;20002;-89
2021/10/10 04:18:50;;;;;;;7.18;6.10;;;3.90;99.90;;;;;;6057246;23;20011;-89
2021/10/10 04:21:16;;;;;;;8.30;7.03;;;3.90;99.90;;;;;;6057533;23;20022;-88
2021/10/10 04:23:41;;;;;;;9.07;7.40;;;3.80;99.90;;;;;;6081751;23;20101;-88
2021/10/10 04:26:07;;;;;;;7.57;6.68;;;3.90;99.90;;;;;;6057427;23;20467;-89
2021/10/10 04:28:33;;;;;;;8.88;7.40;;;3.90;99.90;;;;;;6057828;23;20014;-89
2021/10/10 04:30:58;;;;;;;7.55;6.75;;;3.80;99.90;;;;;;6057790;23;20011;-89
2021/10/10 04:33:24;;;;;;;8.35;6.97;;;3.80;99.90;;;;;;6057186;23;20014;-89
2021/10/10 04:35:49;;;;;;;10.07;7.43;;;3.70;99.90;;;;;;6057560;23;20057;-89
2021/10/10 04:38:16;;;;;;;8.52;7.07;;;3.80;99.90;;;;;;6057533;23;20030;-89
2021/10/10 04:40:42;;;;;;;9.77;7.28;;;3.80;99.90;;;;;;6057060;23;20015;-88
2021/10/10 04:43:09;;;;;;;9.38;7.38;;;3.80;99.90;;;;;;6057243;23;20014;-88
2021/10/10 04:45:35;;;;;;;9.10;6.63;;;3.70;99.90;;;;;;6057387;23;20014;-88
2021/10/10 04:48:01;;;;;;;7.82;6.03;;;3.80;99.90;;;;;;6033612;23;20022;-88
2021/10/10 04:50:27;;;;;;;7.45;6.07;;;3.70;99.90;;;;;;6057621;23;20007;-90
2021/10/10 04:52:52;;;;;;;7.22;6.38;;;3.80;99.90;;;;;;6057449;23;20078;-89
2021/10/10 04:55:18;;;;;;;7.90;7.10;;;3.70;99.90;;;;;;6057797;23;20068;-89
2021/10/10 04:57:44;;;;;;;6.82;6.00;;;3.60;99.90;;;;;;6057300;23;20007;-89
2021/10/10 05:00:10;;;;;;;6.60;5.85;;;3.60;99.90;;;;;;6057145;23;20054;-89
2021/10/10 05:02:35;;;;;;;7.15;5.70;;;3.60;99.90;;;;;;6057302;23;20007;-89
2021/10/10 05:05:01;;;;;;;7.25;6.38;;;3.60;99.90;;;;;;6057679;23;20018;-89
2021/10/10 05:07:27;;;;;;;6.63;5.88;;;3.50;99.90;;;;;;6056887;23;20010;-89
2021/10/10 05:09:53;;;;;;;7.00;5.85;;;3.50;99.90;;;;;;6057798;23;20014;-89
2021/10/10 05:12:18;;;;;;;7.72;6.38;;;3.40;99.90;;;;;;6058384;23;20037;-89
2021/10/10 05:14:44;;;;;;;7.05;5.57;;;3.50;99.90;;;;;;6057302;23;20033;-88
2021/10/10 05:17:10;;;;;;;6.65;5.95;;;3.50;99.90;;;;;;6057813;23;20096;-89
2021/10/10 05:19:35;;;;;;;8.10;7.00;;;3.40;99.90;;;;;;6057539;23;20011;-88
2021/10/10 05:22:02;;;;;;;7.65;6.20;;;3.40;99.90;;;;;;6057205;23;20007;-89
2021/10/10 05:24:27;;;;;;;7.15;5.45;;;3.40;99.90;;;;;;6056900;23;20011;-89
2021/10/10 05:26:53;;;;;;;7.15;6.18;;;3.30;99.90;;;;;;6081327;23;20006;-89
2021/10/10 05:29:18;;;;;;;6.45;5.75;;;3.40;99.90;;;;;;6057490;23;20006;-89
2021/10/10 05:31:44;;;;;;;7.60;5.88;;;3.40;99.90;;;;;;6057418;23;20011;-89
2021/10/10 05:34:10;;;;;;;7.57;6.47;;;3.30;99.90;;;;;;6081216;23;20006;-88
2021/10/10 05:36:36;;;;;;;7.72;6.10;;;3.20;99.90;;;;;;6057526;23;20405;-89
2021/10/10 05:39:03;;;;;;;7.65;6.85;;;3.30;99.90;;;;;;6057143;23;20015;-88
2021/10/10 05:41:29;;;;;;;6.88;5.97;;;3.30;99.90;;;;;;6057382;23;20010;-89
2021/10/10 05:43:55;;;;;;;8.02;6.90;;;3.30;99.90;;;;;;6057270;23;20011;-89
2021/10/10 05:46:20;;;;;;;6.78;5.85;;;3.20;99.90;;;;;;6056838;23;20014;-88
2021/10/10 05:48:46;;;;;;;7.10;6.40;;;3.30;99.90;;;;;;6080881;23;20081;-89
2021/10/10 05:51:11;;;;;;;7.05;5.95;;;3.20;99.90;;;;;;6057258;23;20055;-89
2021/10/10 05:53:38;;;;;;;6.93;5.72;;;3.10;99.90;;;;;;6057059;23;20026;-89
2021/10/10 05:56:04;;;;;;;7.03;5.63;;;3.20;99.90;;;;;;6057099;23;20122;-89
2021/10/10 05:58:39;;;;;;;6.75;5.70;;;3.20;99.90;;;;;;6056819;23;20023;-88
2021/10/10 06:01:05;;;;;;;8.35;6.78;;;3.30;99.90;;;;;;6056157;23;20011;-89
2021/10/10 06:03:30;;;;;;;7.75;6.50;;;3.20;99.90;;;;;;6081263;23;20381;-88
2021/10/10 06:05:56;;;;;;;7.00;5.97;;;3.20;99.90;;;;;;6056548;23;20007;-88
2021/10/10 06:08:21;;;;;;;7.90;6.07;;;3.10;99.90;;;;;;6079825;23;20011;-88
2021/10/10 06:10:47;;;;;;;6.00;5.38;;;3.10;99.90;;;;;;6080040;23;20010;-88
2021/10/10 06:13:13;;;;;;;6.78;5.93;;;3.30;99.90;;;;;;6055979;23;20015;-89
2021/10/10 06:15:40;;;;;;;7.75;6.25;;;3.30;99.90;;;;;;6056068;23;20007;-89
2021/10/10 06:18:08;;;;;;;7.30;6.30;;;3.20;99.90;;;;;;6055920;23;20109;-88
2021/10/10 06:20:35;;;;;;;8.77;6.25;;;3.20;99.90;;;;;;6056203;23;20038;-88
2021/10/10 06:23:01;;;;;;;7.35;6.18;;;3.20;99.90;;;;;;6055288;23;20401;-88
2021/10/10 06:25:26;;;;;;;8.90;7.70;;;3.30;99.90;;;;;;6056293;23;20011;-88
2021/10/10 06:27:52;;;;;;;9.60;8.18;;;3.30;99.90;;;;;;6056204;23;20022;-88
2021/10/10 06:30:18;;;;;;;8.05;6.85;;;3.30;99.90;;;;;;6055924;23;20094;-87
2021/10/10 06:32:43;;;;;;;7.38;6.57;;;3.40;99.90;;;;;;6055975;23;20007;-88
2021/10/10 06:35:09;;;;;;;7.15;6.45;;;3.50;99.90;;;;;;6055872;23;20038;-86
2021/10/10 06:37:35;;;;;;;6.47;5.63;;;3.50;99.90;;;;;;6056247;23;20007;-88
2021/10/10 06:40:01;;;;;;;7.80;5.68;;;3.60;99.90;;;;;;6056415;23;20066;-88
2021/10/10 06:42:27;;;;;;;5.80;5.20;;;3.70;99.90;;;;;;6057674;23;20018;-88
2021/10/10 06:44:52;;;;;;;5.43;4.85;;;3.70;99.90;;;;;;6057627;23;20038;-87
2021/10/10 06:47:18;;;;;;;5.85;4.68;;;3.80;99.90;;;;;;6057925;23;20031;-87
2021/10/10 06:49:43;;;;;;;5.88;5.10;;;3.80;99.90;;;;;;6057582;23;20018;-87
2021/10/10 06:52:09;;;;;;;6.65;5.53;;;3.80;99.90;;;;;;6058012;23;20014;-87
2021/10/10 06:54:35;;;;;;;5.35;4.85;;;3.90;99.90;;;;;;6081752;23;20006;-88
2021/10/10 06:57:01;;;;;;;6.32;5.15;;;4.00;99.90;;;;;;6057907;23;20070;-87
2021/10/10 06:59:26;;;;;;;5.97;5.38;;;4.10;99.90;;;;;;6057453;23;20022;-88
2021/10/10 07:01:52;;;;;;;5.90;5.30;;;4.20;99.90;;;;;;6082019;23;20441;-88
2021/10/10 07:04:17;;;;;;;7.53;6.65;;;4.20;99.90;;;;;;6057990;23;20014;-88
2021/10/10 07:06:43;;;;;;;8.55;7.70;;;4.30;99.90;;;;;;6057869;23;20077;-87
2021/10/10 07:09:11;;;;;;;7.50;6.70;;;4.40;99.90;;;;;;6081808;23;20007;-88
2021/10/10 07:11:38;;;;;;;7.90;6.57;;;4.40;99.90;;;;;;6057778;23;20011;-89
2021/10/10 07:14:04;;;;;;;6.88;6.22;;;4.50;99.90;;;;;;6081855;23;20011;-88
2021/10/10 07:16:30;;;;;;;6.30;5.68;;;4.70;99.90;;;;;;6081454;23;20511;-88
2021/10/10 07:18:57;;;;;;;6.50;5.88;;;4.60;99.90;;;;;;6081299;23;20011;-89
2021/10/10 07:26:36;;;;;;;7.38;5.82;;;5.00;99.90;;;;;;6083271;23;20453;-87
2021/10/10 07:29:02;;;;;;;7.38;6.57;;;5.10;99.90;;;;;;6081639;23;20011;-88
2021/10/10 07:31:28;;;;;;;9.35;7.07;;;5.30;99.90;;;;;;6081765;23;20014;-88
2021/10/10 07:33:54;;;;;;;8.13;6.78;;;5.40;99.90;;;;;;6057535;23;20011;-89
2021/10/10 07:36:20;;;;;;;8.50;7.35;;;5.50;99.90;;;;;;6057452;23;20077;-88
2021/10/10 07:38:46;;;;;;;8.13;6.93;;;5.70;99.90;;;;;;6056898;23;20037;-88
2021/10/10 07:41:12;;;;;;;8.82;7.30;;;5.90;99.90;;;;;;6057305;23;20015;-88
2021/10/10 07:43:39;;;;;;;9.30;7.47;;;6.10;99.90;;;;;;6081422;23;20010;-87
2021/10/10 07:46:06;;;;;;;9.80;7.65;;;6.20;99.90;;;;;;6056857;23;20075;-88
2021/10/10 07:48:36;;;;;;;14.57;10.35;;;6.70;99.90;;;;;;6057460;23;20018;-88
2021/10/10 07:51:03;;;;;;;19.70;13.18;;;6.70;99.90;;;;;;6081313;23;20010;-88
2021/10/10 07:53:29;;;;;;;25.25;17.63;;;6.90;99.90;;;;;;6081016;23;20014;-88
2021/10/10 07:55:55;;;;;;;17.63;14.18;;;6.90;99.90;;;;;;6081355;23;20015;-88
2021/10/10 07:58:21;;;;;;;15.57;12.02;;;7.00;99.90;;;;;;6057373;23;20074;-88
2021/10/10 08:00:46;;;;;;;20.17;14.60;;;7.20;99.90;;;;;;6056891;23;20015;-88
2021/10/10 08:03:12;;;;;;;19.45;14.73;;;7.20;99.90;;;;;;6057254;23;20007;-88
2021/10/10 08:05:40;;;;;;;18.27;14.20;;;7.40;99.90;;;;;;6081217;23;20066;-87
2021/10/10 08:08:06;;;;;;;15.60;13.05;;;7.60;99.90;;;;;;6080762;23;20013;-86
2021/10/10 08:10:31;;;;;;;19.45;14.80;;;7.70;99.90;;;;;;6081231;23;20003;-87
2021/10/10 08:12:57;;;;;;;19.20;14.60;;;7.80;99.90;;;;;;6081152;23;20138;-87
2021/10/10 08:15:22;;;;;;;19.15;14.02;;;8.10;99.90;;;;;;6080930;23;20022;-87
2021/10/10 08:17:48;;;;;;;18.13;14.00;;;8.20;99.90;;;;;;6057138;23;20049;-87
2021/10/10 08:20:14;;;;;;;19.05;13.82;;;8.50;99.90;;;;;;6056907;23;20035;-86
2021/10/10 08:22:40;;;;;;;20.48;15.45;;;8.50;99.90;;;;;;6081137;23;20015;-87
2021/10/10 08:25:10;;;;;;;20.30;16.00;;;8.70;99.90;;;;;;6080932;23;20011;-86
2021/10/10 08:27:36;;;;;;;;;;;9.00;99.90;;;;;;6081251;23;20006;-87
2021/10/10 08:30:14;;;;;;;18.20;13.50;;;9.00;99.90;;;;;;6080418;23;19905;-87
2021/10/10 08:32:40;;;;;;;20.27;15.65;;;9.20;99.90;;;;;;6080766;23;20021;-87
2021/10/10 08:35:07;;;;;;;25.27;17.05;;;9.20;99.90;;;;;;6056779;23;20496;-87
2021/10/10 08:37:33;;;;;;;26.00;20.20;;;9.10;99.90;;;;;;6056544;23;20014;-86
2021/10/10 08:39:59;;;;;;;24.35;18.95;;;9.20;99.90;;;;;;6080565;23;20030;-87
2021/10/10 08:42:30;;;;;;;30.08;21.75;;;9.10;99.90;;;;;;6056626;23;20014;-87
2021/10/10 08:45:05;;;;;;;27.27;20.95;;;9.20;99.90;;;;;;6080621;23;20352;-85
2021/10/10 08:47:32;;;;;;;24.05;18.35;;;9.40;99.90;;;;;;6080274;23;20054;-87
2021/10/10 08:49:59;;;;;;;28.02;21.25;;;9.60;99.90;;;;;;6080881;23;20017;-86
2021/10/10 08:52:25;;;;;;;30.60;23.10;;;9.40;99.90;;;;;;6080726;23;20027;-87
2021/10/10 08:54:51;;;;;;;33.55;22.95;;;9.50;99.90;;;;;;6080846;23;20007;-87
2021/10/10 08:57:17;;;;;;;28.52;21.35;;;9.60;99.90;;;;;;6080637;23;20081;-86
2021/10/10 08:59:46;;;;;;;26.65;17.73;;;9.70;99.90;;;;;;6054915;23;20019;-86
2021/10/10 09:02:21;;;;;;;24.70;18.33;;;9.90;99.90;;;;;;6080382;23;20017;-87
2021/10/10 09:04:46;;;;;;;25.85;19.17;;;9.70;99.90;;;;;;6080839;23;20043;-85
2021/10/10 09:07:13;;;;;;;29.00;20.70;;;9.80;99.90;;;;;;6056565;23;20007;-86
2021/10/10 09:09:41;;;;;;;26.00;17.98;;;10.00;99.90;;;;;;6080269;23;20459;-87
2021/10/10 09:12:09;;;;;;;29.05;21.08;;;10.30;99.90;;;;;;6056472;23;20081;-87
2021/10/10 09:14:49;;;;;;;30.20;20.70;;;10.10;99.90;;;;;;6080431;23;20026;-87
2021/10/10 09:17:19;;;;;;;30.90;22.40;;;10.10;99.90;;;;;;6080394;23;20010;-87
2021/10/10 09:19:59;;;;;;;30.27;21.20;;;10.40;99.90;;;;;;6080560;23;20019;-86
2021/10/10 09:22:26;;;;;;;29.98;20.40;;;10.90;99.90;;;;;;6080669;23;20011;-86
2021/10/10 09:24:54;;;;;;;30.00;20.58;;;11.10;99.90;;;;;;6080257;23;20013;-88
2021/10/10 09:27:22;;;;;;;29.42;21.45;;;10.80;99.90;;;;;;6080297;23;20015;-87
2021/10/10 09:29:51;;;;;;;25.30;18.33;;;11.00;99.90;;;;;;6080140;23;20010;-87
2021/10/10 09:32:27;;;;;;;24.10;17.10;;;11.40;99.90;;;;;;6056013;23;20066;-85
2021/10/10 09:34:53;;;;;;;25.35;18.38;;;11.00;99.90;;;;;;6080514;23;20007;-88
2021/10/10 09:37:25;;;;;;;25.90;20.30;;;10.90;99.90;;;;;;6056565;23;20026;-87
2021/10/10 09:42:42;;;;;;;23.95;17.15;;;11.20;99.90;;;;;;6081875;23;20023;-87
2021/10/10 09:45:29;;;;;;;25.58;18.05;;;11.40;99.90;;;;;;6080670;23;20093;-88
2021/10/10 09:47:59;;;;;;;23.70;16.90;;;11.50;99.90;;;;;;6079848;23;20026;-87
2021/10/10 09:50:27;;;;;;;25.42;17.95;;;11.40;99.90;;;;;;6080401;23;20448;-87
2021/10/10 09:53:08;;;;;;;23.65;17.17;;;11.50;99.90;;;;;;6080037;23;20011;-87
2021/10/10 09:55:36;;;;;;;32.00;23.00;;;11.90;99.90;;;;;;6056303;23;20039;-87
2021/10/10 09:58:03;;;;;;;27.25;20.27;;;11.70;99.90;;;;;;6080135;23;20006;-86
2021/10/10 10:00:35;;;;;;;26.70;20.33;;;12.00;99.90;;;;;;6056123;23;20455;-87
2021/10/10 10:03:10;;;;;;;25.77;19.67;;;12.40;99.90;;;;;;6079909;23;20011;-87
2021/10/10 10:05:37;;;;;;;27.25;19.98;;;12.40;99.90;;;;;;6080282;23;20014;-87
2021/10/10 10:08:04;;;;;;;27.90;18.90;;;12.00;99.90;;;;;;6055909;23;20091;-87
2021/10/10 10:10:32;;;;;;;27.00;19.23;;;12.00;99.90;;;;;;6079862;23;20082;-87
2021/10/10 10:12:59;;;;;;;26.02;19.58;;;11.90;99.90;;;;;;6055817;23;20014;-86
2021/10/10 10:15:30;;;;;;;28.42;20.25;;;12.30;99.90;;;;;;6056668;23;20007;-87
2021/10/10 10:17:57;;;;;;;34.15;20.83;;;12.60;99.90;;;;;;6057686;23;20043;-86
2021/10/10 10:20:25;;;;;;;28.33;20.02;;;12.80;99.90;;;;;;6081503;23;20015;-87
2021/10/10 10:22:52;;;;;;;30.40;22.20;;;12.80;99.90;;;;;;6057702;23;20432;-86
2021/10/10 10:25:19;;;;;;;27.55;19.13;;;12.90;99.90;;;;;;6081667;23;20003;-86
2021/10/10 10:27:44;;;;;;;26.23;19.23;;;12.80;99.90;;;;;;6081846;23;20428;-87
2021/10/10 10:30:11;;;;;;;29.50;20.25;;;12.50;99.90;;;;;;6081775;23;20019;-87
2021/10/10 10:32:36;;;;;;;24.65;15.85;;;12.60;99.90;;;;;;6057609;23;20007;-87
2021/10/10 10:35:11;;;;;;;29.13;21.02;;;12.70;99.90;;;;;;6081603;23;20031;-88
2021/10/10 10:37:42;;;;;;;21.48;14.32;;;13.00;99.90;;;;;;6057593;23;20564;-86
2021/10/10 10:40:14;;;;;;;32.50;22.60;;;13.00;99.90;;;;;;6057922;23;20025;-87
2021/10/10 10:42:45;;;;;;;39.28;28.23;;;13.10;99.90;;;;;;6057606;23;20014;-87
2021/10/10 10:45:24;;;;;;;43.45;30.75;;;12.80;99.90;;;;;;6057442;23;20062;-87
2021/10/10 10:47:53;;;;;;;44.03;29.73;;;12.90;99.90;;;;;;6032502;23;20019;-86
2021/10/10 10:50:31;;;;;;;36.87;24.60;;;12.80;99.90;;;;;;6052827;23;20016;-85
2021/10/10 10:53:05;;;;;;;27.65;20.05;;;13.10;99.90;;;;;;6052593;23;20094;-87
2021/10/10 10:55:37;;;;;;;37.13;26.92;;;13.30;99.90;;;;;;6029446;23;20015;-86
2021/10/10 10:58:05;;;;;;;34.28;22.52;;;13.20;99.90;;;;;;6052694;23;20038;-86
2021/10/10 11:01:02;;;;;;;34.63;22.80;;;13.20;99.90;;;;;;6029398;23;20019;-86
2021/10/10 11:03:28;;;;;;;36.95;24.27;;;13.10;99.90;;;;;;6025328;23;20043;-85
2021/10/10 11:05:57;;;;;;;30.50;22.17;;;13.30;99.90;;;;;;6029780;23;20015;-85
2021/10/10 11:08:26;;;;;;;29.10;20.33;;;13.40;99.90;;;;;;6028961;23;20012;-86
2021/10/10 11:11:03;;;;;;;26.63;19.20;;;13.50;99.90;;;;;;6029400;23;20011;-86
2021/10/10 11:13:34;;;;;;;32.80;24.30;;;13.60;99.90;;;;;;6028687;23;20011;-86
2021/10/10 11:16:16;;;;;;;33.13;25.48;;;13.80;99.90;;;;;;6028816;23;20018;-87
2021/10/10 11:18:46;;;;;;;34.42;24.40;;;13.60;99.90;;;;;;6028490;23;20066;-86
2021/10/10 11:21:13;;;;;;;;;;;13.70;99.90;;;;;;6029365;23;20015;-84
2021/10/10 11:23:39;;;;;;;31.13;22.88;;;14.00;99.90;;;;;;6052430;23;19902;-86
2021/10/10 11:26:08;;;;;;;27.58;20.65;;;14.00;99.90;;;;;;6052354;23;20058;-86
2021/10/10 11:28:50;;;;;;;26.50;19.10;;;14.10;99.90;;;;;;6028405;23;20016;-87
2021/10/10 11:31:24;;;;;;;25.13;18.80;;;14.20;99.90;;;;;;6052356;23;20014;-85
2021/10/10 11:33:56;;;;;;;29.63;19.08;;;14.20;99.90;;;;;;6028462;23;20063;-85
2021/10/10 11:36:38;;;;;;;24.30;15.75;;;14.20;99.90;;;;;;6028303;23;20022;-86
2021/10/10 11:39:21;;;;;;;22.92;16.23;;;14.30;99.90;;;;;;6028179;23;20057;-86
2021/10/10 11:41:48;;;;;;;21.00;14.48;;;14.30;99.90;;;;;;6028682;23;20442;-86
2021/10/10 11:44:41;;;;;;;16.85;10.80;;;14.70;99.90;;;;;;6028504;23;20011;-87
2021/10/10 11:47:23;;;;;;;17.90;11.10;;;14.70;99.90;;;;;;6030184;23;20298;-86
2021/10/10 11:50:01;;;;;;;21.80;16.23;;;14.70;99.90;;;;;;6027012;23;20007;-85
2021/10/10 11:52:43;;;;;;;22.05;15.60;;;14.70;99.90;;;;;;6027297;23;20015;-86
2021/10/10 11:57:38;;;;;;;18.95;13.18;;;14.70;99.90;;;;;;6050736;23;20026;-86
2021/10/10 12:00:15;;;;;;;19.52;13.73;;;14.80;99.90;;;;;;6027385;23;20079;-86
2021/10/10 12:02:43;;;;;;;13.63;9.95;;;14.80;99.90;;;;;;6027252;23;20014;-87
2021/10/10 12:05:11;;;;;;;17.15;11.35;;;15.10;99.90;;;;;;6051084;23;20024;-87
2021/10/10 12:07:38;;;;;;;19.70;13.82;;;15.20;99.90;;;;;;6050878;23;20221;-87
2021/10/10 12:10:06;;;;;;;22.48;14.43;;;15.00;99.90;;;;;;6026956;23;20338;-86
2021/10/10 12:12:32;;;;;;;20.42;14.23;;;15.00;99.90;;;;;;6027189;23;20089;-87
2021/10/10 12:14:59;;;;;;;20.83;13.85;;;15.10;99.90;;;;;;6026981;23;20003;-88
2021/10/10 12:17:54;;;;;;;19.60;14.25;;;15.10;99.90;;;;;;6027116;23;20098;-88
2021/10/10 12:20:28;;;;;;;19.17;13.35;;;15.10;99.90;;;;;;6003114;23;20019;-85
2021/10/10 12:23:02;;;;;;;21.83;14.43;;;15.30;99.90;;;;;;6027026;23;20144;-87
2021/10/10 12:25:43;;;;;;;20.02;15.07;;;15.30;99.90;;;;;;6048071;23;20062;-88
2021/10/10 12:28:14;;;;;;;19.58;13.50;;;15.10;99.90;;;;;;6057181;23;20058;-87
2021/10/10 12:30:41;;;;;;;20.77;14.93;;;15.20;99.90;;;;;;6056940;23;20034;-87
2021/10/10 12:33:21;;;;;;;24.45;17.92;;;15.40;99.90;;;;;;6080915;23;20010;-87
2021/10/10 12:36:08;;;;;;;22.23;15.52;;;15.50;99.90;;;;;;6080664;23;20011;-89
2021/10/10 12:38:37;;;;;;;24.73;17.02;;;15.60;99.90;;;;;;6056475;23;20058;-87
2021/10/10 12:41:21;;;;;;;21.20;14.05;;;15.50;99.90;;;;;;6056340;23;20021;-88
2021/10/10 12:43:48;;;;;;;20.70;15.23;;;15.90;99.90;;;;;;6057123;23;20011;-87
2021/10/10 12:46:14;;;;;;;17.80;13.38;;;15.70;99.90;;;;;;6057314;23;20015;-86
2021/10/10 12:48:40;;;;;;;24.65;17.50;;;15.60;99.90;;;;;;6080806;23;20011;-87
2021/10/10 12:51:14;;;;;;;20.02;13.98;;;15.50;99.90;;;;;;6056723;23;20013;-86
2021/10/10 12:53:40;;;;;;;22.27;16.35;;;15.70;99.90;;;;;;6080810;23;20037;-88
2021/10/10 12:56:19;;;;;;;24.02;18.20;;;15.80;99.90;;;;;;6056819;23;20026;-89
2021/10/10 12:58:50;;;;;;;24.90;16.85;;;15.70;99.90;;;;;;6080704;23;20021;-88